West Baden Springs, Indiana
Current Conditions -  °F | °C
As of 1:35 AM on Thursday 29 Jan 2015 (Local Time) from KHNB Reporting Station
Clear Clear  
Wind Chill: 34°   Ceiling: Unl
Heat Index: 39°   Visibility: 10mi
Dew Point: 25°   Wind: 8mph
Humidity: 56%   Direction: 170°S
Pressure: 30"   Gusts: NA
Location:  38.57°N, 86.61°W
Report Text: KHNB 290635Z AUTO 17007KT 10SM CLR 04/M04 A3000 RMK AO1
Loading
Personal Weather Stations






























Interactive Weather Map New forecast layout! Learn more

10-Day Weather Forecast

Advertisements
Track Severe Weather on mobile